Terminal Aerodrome Forecast
Issued by NWS Portland, OR

Home | Current Version | Previous Version | Text Only | Print | Product List | Glossary On
Versions: 1 2 3 4 5 6 7 8 9 10 11 12 13 14 15 16 17 18 19 20 21 22 23 24 25 26 27 28 29 30 31 32 33 34
000
FTUS46 KPQR 270530
TAFSLE
TAF
KSLE 270530Z 2706/2806 15003KT P6SM BKN035 OVC045
     FM271100 16003KT P6SM BKN015 OVC035
     FM271700 18005KT 6SM -RA BR BKN015 OVC035
     FM272000 19009KT P6SM -RA SCT015 OVC035
     FM280000 25011G19KT P6SM -RA SCT020 OVC040=

USA.gov is the U.S. government's official web portal to all federal, state and local government web resources and services.